Silverton, Oregon
Current Conditions -  °F | °C
As of 6:56 PM on Saturday 25 Oct 2014 (Local Time) from KSLE Reporting Station
Broken Clouds Broken Clouds  
Wind Chill: 55°   Ceiling: 4300
Heat Index: 55°   Visibility: 10mi
Dew Point: 48°   Wind: 14mph
Humidity: 77%   Direction: 190°S
Pressure: 29.77"   Gusts: NA
Location:  45°N, 122.78°W
Report Text: KSLE 260156Z 19012KT 10SM BKN043 BKN060 BKN120 13/09 A2977 RMK AO2 PRESRR SLP081 T01280089
Loading
Personal Weather Stations






























Interactive Weather Map
Tropical Storm Tracking
New forecast layout! Learn more

10-Day Weather Forecast

Advertisements
Track Severe Weather on mobile